Aviation Digital Data Service (ADDS)

Output produced by METARs form (1311 UTC 01 April 2015)
found at http://aviationweather.gov/adds/metars/
 
KLAX 011134Z 0112/0218 VRB03KT P6SM SCT015 
     FM011900 26014KT P6SM SCT250 
     FM020200 28008KT P6SM SCT250 
     FM020500 VRB03KT P6SM SCT250 
     FM021200 VRB04KT P6SM SKC WS020/01020KT